Sherando, Virginia
Current Conditions -  °F | °C
As of 1:55 PM on Friday 24 Oct 2014 (Local Time) from KW13 Reporting Station
Clear Clear  
Wind Chill: 64°   Ceiling: Unl
Heat Index: 64°   Visibility: 10mi
Dew Point: 40°   Wind: 6mph
Humidity: 41%   Direction: 220°SW
Pressure: 29.98"   Gusts: NA
Location:  37.9643°N, 78.9678°W
Report Text: KW13 241755Z AUTO 22005KT 10SM CLR 18/04 A2998 RMK AO1 T01750042 10178 20082
Loading
Personal Weather Stations






























Interactive Weather Map
Tropical Storm Tracking
New forecast layout! Learn more

10-Day Weather Forecast

Advertisements
Track Severe Weather on mobile